createdAt,value
2018-10-11T20:56:47.934Z,335.63
2018-10-11T20:59:18.391Z,351.40
2018-10-11T21:01:48.773Z,358.50
2018-10-11T21:04:19.194Z,362.38
2018-10-11T21:06:49.618Z,369.00
2018-10-11T21:09:19.962Z,365.68
2018-10-11T21:11:50.631Z,365.57
2018-10-11T21:14:20.894Z,361.12
2018-10-11T21:16:51.295Z,354.57
2018-10-11T21:19:22.567Z,364.52
2018-10-11T21:21:53.106Z,369.30
2018-10-11T21:24:23.411Z,367.50
2018-10-11T21:26:53.759Z,371.00
2018-10-11T21:29:24.059Z,375.77
2018-10-11T21:31:54.399Z,374.40
2018-10-11T21:34:24.752Z,373.85
2018-10-11T21:36:56.503Z,358.87
2018-10-11T21:39:27.532Z,360.30
2018-10-11T21:41:58.770Z,354.68
2018-10-11T21:44:29.076Z,351.18
2018-10-11T21:46:59.455Z,344.20
2018-10-11T21:49:30.071Z,337.72
2018-10-11T21:52:00.687Z,330.45
2018-10-11T21:54:31.001Z,335.05
2018-10-11T21:57:01.470Z,330.25
2018-10-11T21:59:31.780Z,330.43
2018-10-11T22:02:02.219Z,340.60
2018-10-11T22:04:32.587Z,340.75
2018-10-11T22:07:02.943Z,344.15
2018-10-11T22:09:33.234Z,350.20
2018-10-11T22:12:03.550Z,351.40
2018-10-11T22:14:33.855Z,349.60
2018-10-11T22:17:04.214Z,347.27
2018-10-11T22:19:34.534Z,347.98
2018-10-11T22:22:04.870Z,350.00
2018-10-11T22:24:35.211Z,344.07
2018-10-11T22:27:05.573Z,339.88
2018-10-11T22:29:35.946Z,333.10
2018-10-11T22:32:06.278Z,331.95
2018-10-11T22:34:36.578Z,338.00
2018-10-11T22:37:06.943Z,336.02
2018-10-11T22:39:37.227Z,339.35
2018-10-11T22:42:07.518Z,347.12
2018-10-11T22:44:37.791Z,350.13
2018-10-11T22:47:08.511Z,349.98
2018-10-11T22:49:38.895Z,353.37
2018-10-11T22:52:09.379Z,349.15
2018-10-11T22:54:39.753Z,351.73
2018-10-11T22:57:10.151Z,339.38
2018-10-11T22:59:40.543Z,334.55
2018-10-11T23:02:10.877Z,332.57
2018-10-11T23:04:41.199Z,328.25
2018-10-11T23:07:11.834Z,328.80
2018-10-11T23:09:42.140Z,323.07
2018-10-11T23:12:12.499Z,316.40
2018-10-11T23:14:43.057Z,320.85
2018-10-11T23:17:13.329Z,321.48
2018-10-11T23:19:43.663Z,330.15
2018-10-11T23:22:14.095Z,335.95
2018-10-11T23:24:44.434Z,342.15
2018-10-11T23:27:14.736Z,340.05
2018-10-11T23:29:45.052Z,336.55
2018-10-11T23:32:16.930Z,335.23
2018-10-11T23:34:47.235Z,340.07
2018-10-11T23:37:17.584Z,332.35
2018-10-11T23:39:47.874Z,329.30
2018-10-11T23:42:18.170Z,328.90
2018-10-11T23:44:48.436Z,337.02
2018-10-11T23:47:18.691Z,347.58
2018-10-11T23:49:49.031Z,366.30
2018-10-11T23:52:19.302Z,383.68
2018-10-11T23:54:49.643Z,397.52
2018-10-11T23:57:19.991Z,397.23
2018-10-11T23:59:51.330Z,404.80
